createdAt,value
2019-03-09T00:04:35.587Z,8.60
2019-03-09T00:14:44.925Z,8.70
2019-03-09T00:24:59.889Z,8.70
2019-03-09T00:51:19.415Z,8.30
2019-03-09T00:56:25.653Z,8.10
2019-03-09T01:06:35.053Z,8.40
2019-03-09T01:11:40.392Z,8.20
2019-03-09T01:16:46.298Z,8.00
2019-03-09T01:26:57.789Z,8.20
2019-03-09T01:32:06.842Z,8.10
2019-03-09T01:37:14.553Z,8.30
2019-03-09T01:57:38.939Z,8.00
2019-03-09T02:02:44.474Z,7.80
2019-03-09T02:17:58.547Z,8.30
2019-03-09T02:23:07.324Z,8.30
2019-03-09T02:33:17.861Z,7.90
2019-03-09T02:53:56.117Z,7.80
2019-03-09T03:04:05.466Z,8.20
2019-03-09T03:09:10.641Z,8.10
2019-03-09T03:14:16.838Z,7.90
2019-03-09T03:39:40.336Z,8.40
2019-03-09T03:44:48.671Z,8.40
2019-03-09T03:49:53.630Z,8.30
2019-03-09T03:54:59.911Z,8.50
2019-03-09T04:00:06.437Z,8.50
2019-03-09T04:05:11.534Z,8.50
2019-03-09T04:10:16.455Z,8.60
2019-03-09T04:15:21.856Z,8.60
2019-03-09T04:20:26.685Z,8.70
2019-03-09T04:25:31.555Z,8.90
2019-03-09T04:30:36.523Z,8.90
2019-03-09T04:35:41.498Z,8.70
2019-03-09T04:40:47.008Z,8.70
2019-03-09T04:45:51.990Z,9.00
2019-03-09T04:50:57.136Z,9.00
2019-03-09T04:56:02.089Z,9.10
2019-03-09T05:01:07.035Z,9.40
2019-03-09T05:06:15.129Z,9.60
2019-03-09T05:11:27.546Z,9.30
2019-03-09T05:16:32.412Z,9.30
2019-03-09T05:21:37.256Z,9.30
2019-03-09T05:26:42.332Z,9.40
2019-03-09T05:31:47.835Z,9.40
2019-03-09T05:36:52.710Z,9.30
2019-03-09T05:41:58.764Z,7.60
2019-03-09T05:47:05.886Z,9.20
2019-03-09T05:52:29.647Z,9.10
2019-03-09T05:57:34.666Z,8.90
2019-03-09T06:02:39.685Z,8.80
2019-03-09T06:07:46.017Z,8.80
2019-03-09T06:12:51.104Z,8.90
2019-03-09T06:17:56.042Z,8.80
2019-03-09T06:23:01.081Z,8.80
2019-03-09T06:28:07.476Z,9.00
2019-03-09T06:33:30.184Z,9.00
2019-03-09T06:38:58.293Z,9.30
2019-03-09T06:44:05.171Z,9.30
2019-03-09T06:49:18.289Z,9.40
2019-03-09T06:54:27.203Z,9.70
2019-03-09T06:59:32.338Z,9.60
2019-03-09T07:04:54.241Z,9.60
2019-03-09T07:15:36.584Z,9.50
2019-03-09T07:20:56.001Z,9.60
2019-03-09T07:57:19.002Z,10.10
2019-03-09T08:23:01.863Z,10.20
2019-03-09T08:38:15.788Z,10.20
2019-03-09T08:43:21.448Z,10.20
2019-03-09T08:53:37.318Z,10.70
2019-03-09T08:58:42.482Z,10.80
2019-03-09T09:08:56.418Z,10.90
2019-03-09T09:14:04.350Z,10.80
2019-03-09T09:19:09.426Z,10.90
2019-03-09T09:29:21.900Z,11.20
2019-03-09T09:34:27.371Z,11.30
2019-03-09T09:39:34.299Z,11.50
2019-03-09T09:59:58.809Z,11.20
2019-03-09T10:05:18.664Z,11.10
2019-03-09T10:21:03.859Z,11.30
2019-03-09T10:26:26.807Z,11.10
2019-03-09T10:37:09.690Z,11.10
2019-03-09T11:03:22.831Z,11.70
2019-03-09T11:08:30.499Z,11.90
2019-03-09T11:13:36.218Z,11.80
2019-03-09T11:23:47.482Z,11.90
2019-03-09T11:28:52.389Z,11.70
2019-03-09T11:33:57.185Z,11.70
2019-03-09T11:39:02.238Z,12.10
2019-03-09T11:44:07.338Z,12.20
2019-03-09T11:49:12.199Z,12.30
2019-03-09T11:54:17.972Z,12.80
2019-03-09T11:59:26.483Z,13.00
2019-03-09T12:09:36.000Z,13.60
2019-03-09T12:14:40.818Z,14.50
2019-03-09T12:19:45.917Z,13.90
2019-03-09T12:24:53.920Z,14.00
2019-03-09T12:29:59.105Z,14.10
2019-03-09T12:40:12.010Z,13.90
2019-03-09T12:45:17.911Z,13.70
2019-03-09T12:50:23.007Z,13.60
2019-03-09T12:55:27.853Z,13.40
2019-03-09T13:00:32.906Z,13.40
2019-03-09T13:05:37.735Z,13.50
2019-03-09T13:10:42.802Z,13.30
2019-03-09T13:15:47.693Z,13.30
2019-03-09T13:20:52.709Z,13.90
2019-03-09T13:26:22.983Z,12.70
2019-03-09T13:31:27.843Z,12.60
2019-03-09T13:36:32.501Z,12.10
2019-03-09T13:41:37.324Z,12.10
2019-03-09T13:46:43.226Z,11.60
2019-03-09T13:51:48.046Z,11.60
2019-03-09T13:56:52.650Z,11.90
2019-03-09T14:01:57.638Z,11.80
2019-03-09T14:07:02.182Z,12.60
2019-03-09T14:12:06.814Z,11.90
2019-03-09T14:17:11.483Z,11.50
2019-03-09T14:22:16.130Z,11.40
2019-03-09T14:27:20.834Z,11.90
2019-03-09T14:32:26.886Z,11.40
2019-03-09T14:37:31.973Z,10.80
2019-03-09T14:42:36.674Z,10.70
2019-03-09T14:47:41.299Z,10.60
2019-03-09T14:52:45.998Z,10.30
2019-03-09T14:57:50.667Z,10.80
2019-03-09T15:02:55.473Z,11.30
2019-03-09T15:08:00.119Z,10.80
2019-03-09T15:13:05.111Z,11.10
2019-03-09T15:18:09.694Z,10.90
2019-03-09T15:23:14.363Z,10.80
2019-03-09T15:28:19.082Z,10.80
2019-03-09T15:33:24.838Z,10.70
2019-03-09T15:38:29.462Z,10.60
2019-03-09T15:43:34.371Z,10.70
2019-03-09T15:48:39.104Z,10.70
2019-03-09T15:53:43.691Z,11.40
2019-03-09T15:58:48.579Z,11.90
2019-03-09T16:03:53.506Z,11.30
2019-03-09T16:08:58.606Z,10.90
2019-03-09T16:14:03.330Z,11.00
2019-03-09T16:19:08.038Z,10.90
2019-03-09T16:24:12.730Z,10.10
2019-03-09T16:29:17.466Z,9.60
2019-03-09T16:34:22.442Z,9.20
2019-03-09T16:39:27.062Z,9.60
2019-03-09T16:44:31.807Z,9.50
2019-03-09T16:49:36.343Z,9.40
2019-03-09T16:54:41.069Z,9.50
2019-03-09T16:59:45.654Z,9.40
2019-03-09T17:04:50.279Z,9.30
2019-03-09T17:09:54.879Z,9.50
2019-03-09T17:14:59.521Z,9.40
2019-03-09T17:20:04.975Z,9.40
2019-03-09T17:25:09.728Z,9.30
2019-03-09T17:30:16.006Z,9.40
2019-03-09T17:35:20.635Z,9.30
2019-03-09T17:40:26.486Z,9.40
2019-03-09T17:45:31.134Z,9.20
2019-03-09T17:50:36.026Z,9.10
2019-03-09T17:55:40.668Z,9.30
2019-03-09T18:00:46.419Z,9.30
2019-03-09T18:05:51.386Z,9.40
2019-03-09T18:10:58.793Z,9.30
2019-03-09T18:16:03.660Z,9.30
2019-03-09T18:21:08.353Z,9.30
2019-03-09T18:26:13.035Z,9.30
2019-03-09T18:31:17.854Z,9.40
2019-03-09T18:36:22.769Z,9.20
2019-03-09T18:41:28.099Z,9.20
2019-03-09T18:46:32.731Z,9.20
2019-03-09T18:51:37.794Z,9.20
2019-03-09T18:56:42.503Z,9.30
2019-03-09T19:01:46.983Z,9.20
2019-03-09T19:06:52.267Z,9.20
2019-03-09T19:11:56.826Z,9.20
2019-03-09T19:17:01.671Z,9.10
2019-03-09T19:22:06.381Z,9.10
2019-03-09T19:27:11.491Z,9.20
2019-03-09T19:32:16.937Z,9.00
2019-03-09T19:37:23.677Z,9.10
2019-03-09T19:42:28.979Z,9.00
2019-03-09T19:47:33.764Z,9.10
2019-03-09T19:52:40.092Z,10.00
2019-03-09T19:57:44.922Z,9.00
2019-03-09T20:02:49.997Z,9.00
2019-03-09T20:07:55.212Z,8.90
2019-03-09T20:13:00.247Z,8.10
2019-03-09T20:18:05.274Z,8.90
2019-03-09T20:23:10.356Z,8.90
2019-03-09T20:28:16.536Z,8.90
2019-03-09T20:33:22.878Z,8.80
2019-03-09T20:38:29.325Z,8.90
2019-03-09T20:43:35.635Z,8.90
2019-03-09T20:48:42.118Z,8.80
2019-03-09T20:53:47.121Z,8.80
2019-03-09T20:58:52.154Z,8.70
2019-03-09T21:03:57.195Z,8.50
2019-03-09T21:09:02.328Z,8.60
2019-03-09T21:14:07.282Z,8.50
2019-03-09T21:19:13.040Z,8.60
2019-03-09T21:24:18.011Z,8.70
2019-03-09T21:29:23.351Z,8.70
2019-03-09T21:34:28.163Z,8.70
2019-03-09T21:39:33.767Z,8.60
2019-03-09T21:44:38.990Z,8.70
2019-03-09T21:49:43.921Z,8.60
2019-03-09T21:54:48.651Z,8.70
2019-03-09T21:59:53.232Z,8.70
2019-03-09T22:04:58.407Z,8.70
2019-03-09T22:10:03.373Z,8.70
2019-03-09T22:15:08.931Z,8.60
2019-03-09T22:20:13.863Z,8.80
2019-03-09T22:25:18.838Z,8.70
2019-03-09T22:30:23.880Z,8.70
2019-03-09T22:35:28.583Z,8.70
2019-03-09T22:40:33.263Z,8.80
2019-03-09T22:45:38.303Z,8.90
2019-03-09T22:50:43.218Z,8.90
2019-03-09T22:55:48.040Z,9.00
2019-03-09T23:00:53.191Z,9.00
2019-03-09T23:05:57.723Z,9.00
2019-03-09T23:11:02.483Z,9.00
2019-03-09T23:16:07.178Z,9.00
2019-03-09T23:21:11.735Z,9.20
2019-03-09T23:26:16.717Z,9.20
2019-03-09T23:31:21.474Z,9.20
2019-03-09T23:36:26.160Z,9.20
2019-03-09T23:41:30.923Z,9.10
2019-03-09T23:46:35.562Z,9.10
2019-03-09T23:51:40.231Z,9.00
2019-03-09T23:56:44.862Z,9.00
